Time;durP1;ratioP1;P1;durP2;ratioP2;P2;SDS_P1;SDS_P2;PMS_P1;PMS_P2;Temp;Humidity;BMP_temperature;BMP_pressure;BME280_temperature;BME280_humidity;BME280_pressure;Samples;Min_cycle;Max_cycle;Signal;HPM_P1;HPM_P2
2022/09/26 00:01:24;;;;;;;4.20;2.00;;;12.10;99.90;;;;;;5105441;28;20453;-80
2022/09/26 00:03:53;;;;;;;4.37;2.43;;;12.10;99.90;;;;;;5104899;28;20458;-81
2022/09/26 00:06:21;;;;;;;5.73;1.83;;;12.10;99.90;;;;;;5105543;28;20523;-81
2022/09/26 00:08:49;;;;;;;3.17;1.80;;;12.10;99.90;;;;;;5106359;28;20560;-80
2022/09/26 00:11:20;;;;;;;3.50;1.90;;;12.10;99.90;;;;;;5106195;28;20453;-80
2022/09/26 00:13:47;;;;;;;4.90;1.90;;;12.00;99.90;;;;;;5104250;28;20445;-81
2022/09/26 00:16:15;;;;;;;3.63;1.50;;;12.00;99.90;;;;;;5104881;28;20456;-79
2022/09/26 00:18:42;;;;;;;4.40;2.07;;;12.00;99.90;;;;;;5105104;28;21024;-81
2022/09/26 00:21:11;;;;;;;3.67;1.87;;;12.00;99.90;;;;;;5104850;28;20515;-78
2022/09/26 00:23:39;;;;;;;4.47;2.00;;;12.00;99.90;;;;;;5104568;28;20524;-79
2022/09/26 00:26:06;;;;;;;5.30;1.67;;;11.90;99.90;;;;;;5105250;28;20451;-79
2022/09/26 00:28:34;;;;;;;4.63;2.37;;;12.00;99.90;;;;;;5102909;28;20505;-79
2022/09/26 00:31:03;;;;;;;4.03;2.10;;;12.00;99.90;;;;;;5105954;28;20497;-80
2022/09/26 00:33:30;;;;;;;3.60;1.93;;;12.00;99.90;;;;;;5103782;28;20458;-82
2022/09/26 00:35:57;;;;;;;4.30;1.93;;;11.80;99.90;;;;;;5105523;28;20541;-80
2022/09/26 00:38:24;;;;;;;7.03;2.00;;;11.90;99.90;;;;;;5104601;28;20499;-78
2022/09/26 00:40:51;;;;;;;4.10;2.20;;;12.00;99.90;;;;;;5104082;28;20839;-80
2022/09/26 00:43:29;;;;;;;4.80;2.27;;;12.00;99.90;;;;;;5102073;28;20457;-82
2022/09/26 00:46:01;;;;;;;4.33;3.00;;;12.00;99.90;;;;;;5104435;28;20454;-80
2022/09/26 00:48:29;;;;;;;5.40;2.53;;;12.00;99.90;;;;;;5105152;28;20578;-79
2022/09/26 00:50:56;;;;;;;3.43;2.27;;;12.00;99.90;;;;;;5105125;28;20454;-80
2022/09/26 00:53:27;;;;;;;4.17;2.33;;;12.00;99.90;;;;;;5101339;28;20452;-79
2022/09/26 00:55:58;;;;;;;5.27;2.13;;;11.90;99.90;;;;;;5105051;28;20560;-81
2022/09/26 00:58:30;;;;;;;2.80;1.97;;;11.80;99.90;;;;;;5104296;28;20474;-81
2022/09/26 01:00:59;;;;;;;7.80;2.40;;;11.90;99.90;;;;;;5104989;28;20476;-79
2022/09/26 01:03:29;;;;;;;5.60;2.80;;;11.80;99.90;;;;;;5103806;28;20528;-80
2022/09/26 01:05:56;;;;;;;4.50;1.80;;;11.70;99.90;;;;;;5104986;28;20527;-81
2022/09/26 01:08:30;;;;;;;3.70;2.10;;;11.90;99.90;;;;;;5105164;28;20484;-79
2022/09/26 01:10:58;;;;;;;3.40;1.80;;;11.90;99.90;;;;;;5105780;28;20530;-79
2022/09/26 01:13:25;;;;;;;3.60;2.20;;;11.90;99.90;;;;;;5097414;28;20456;-78
2022/09/26 01:15:53;;;;;;;3.87;2.27;;;11.90;99.90;;;;;;5098029;28;20490;-78
2022/09/26 01:18:21;;;;;;;3.93;2.27;;;11.90;99.90;;;;;;5097459;28;20479;-78
2022/09/26 01:20:56;;;;;;;5.97;2.40;;;11.90;99.90;;;;;;5097074;28;20451;-81
2022/09/26 01:23:41;;;;;;;5.03;2.83;;;12.00;99.90;;;;;;5096570;28;20448;-78
2022/09/26 01:26:34;;;;;;;3.90;2.43;;;12.00;99.90;;;;;;5096811;28;20500;-78
2022/09/26 01:29:56;;;;;;;4.67;2.60;;;12.00;99.90;;;;;;5096289;28;20860;-79
2022/09/26 01:32:50;;;;;;;4.30;2.10;;;12.00;99.90;;;;;;5096497;28;20483;-79
2022/09/26 01:35:33;;;;;;;3.30;1.87;;;12.10;99.90;;;;;;5090578;28;20483;-78
2022/09/26 01:38:10;;;;;;;4.00;2.40;;;12.00;99.90;;;;;;5109281;28;20481;-80
2022/09/26 01:40:44;;;;;;;3.53;2.37;;;12.10;99.90;;;;;;5115745;28;20517;-82
2022/09/26 01:43:15;;;;;;;4.63;2.47;;;12.10;99.90;;;;;;5115010;28;20448;-80
2022/09/26 01:45:51;;;;;;;3.10;2.10;;;12.10;99.90;;;;;;5115190;28;20458;-81
2022/09/26 01:48:24;;;;;;;5.70;2.40;;;12.20;99.90;;;;;;5109698;28;20497;-80
2022/09/26 01:50:56;;;;;;;7.20;3.10;;;12.10;99.90;;;;;;5101980;28;20446;-78
2022/09/26 01:53:29;;;;;;;4.20;2.13;;;12.10;99.90;;;;;;5100237;28;21206;-79
2022/09/26 01:56:02;;;;;;;4.20;2.53;;;12.10;99.90;;;;;;5098904;28;20475;-79
2022/09/26 01:58:33;;;;;;;4.70;2.87;;;12.10;99.90;;;;;;5099492;28;21276;-78
2022/09/26 02:01:07;;;;;;;6.40;3.17;;;12.20;99.90;;;;;;5095906;28;21413;-78
2022/09/26 02:03:38;;;;;;;4.60;2.50;;;12.10;99.90;;;;;;5096292;28;20810;-79
2022/09/26 02:06:09;;;;;;;4.03;3.43;;;12.10;99.90;;;;;;5095896;28;21239;-78
2022/09/26 02:08:40;;;;;;;3.90;3.10;;;12.10;99.90;;;;;;5097337;28;20483;-79
2022/09/26 02:11:11;;;;;;;2.90;2.07;;;12.10;99.90;;;;;;5097085;28;20457;-79
2022/09/26 02:13:46;;;;;;;5.17;2.60;;;12.20;99.90;;;;;;5087127;22;20499;-82
2022/09/26 02:16:18;;;;;;;5.17;2.80;;;12.30;99.90;;;;;;5051622;28;20516;-84
2022/09/26 02:18:49;;;;;;;6.60;3.70;;;12.30;99.90;;;;;;5053492;28;20545;-82
2022/09/26 02:21:19;;;;;;;4.33;2.83;;;12.30;99.90;;;;;;5054435;28;20843;-82
2022/09/26 02:23:47;;;;;;;5.17;3.33;;;12.30;99.90;;;;;;5054822;28;20593;-82
2022/09/26 02:26:14;;;;;;;3.73;2.70;;;12.40;99.90;;;;;;5052401;28;20504;-82
2022/09/26 02:28:41;;;;;;;4.13;3.23;;;12.30;99.90;;;;;;5052857;28;20463;-84
2022/09/26 02:31:08;;;;;;;3.67;2.70;;;12.40;99.90;;;;;;5048882;28;20461;-82
2022/09/26 02:33:36;;;;;;;7.17;3.23;;;12.40;99.90;;;;;;5058543;28;20485;-83
2022/09/26 02:36:05;;;;;;;6.50;3.90;;;12.30;99.90;;;;;;5056421;28;20477;-83
2022/09/26 02:38:32;;;;;;;7.97;4.23;;;12.30;99.90;;;;;;5064060;28;20474;-84
2022/09/26 02:41:06;;;;;;;10.00;4.87;;;12.40;99.90;;;;;;5055682;28;20516;-84
2022/09/26 02:43:47;;;;;;;5.60;4.30;;;12.40;99.90;;;;;;5057552;28;20580;-84
2022/09/26 02:46:38;;;;;;;7.67;4.00;;;12.40;99.90;;;;;;5059572;28;20533;-82
2022/09/26 02:49:30;;;;;;;8.70;3.73;;;12.40;99.90;;;;;;5044989;28;20448;-83
2022/09/26 02:52:13;;;;;;;6.40;3.60;;;12.40;99.90;;;;;;5058579;28;20522;-82
2022/09/26 02:54:46;;;;;;;7.60;4.30;;;12.50;99.90;;;;;;5066592;28;20532;-82
2022/09/26 02:57:23;;;;;;;13.20;5.53;;;12.40;99.90;;;;;;5052471;28;20511;-82
2022/09/26 02:59:56;;;;;;;8.33;4.50;;;12.40;99.90;;;;;;5068423;28;20454;-82
2022/09/26 03:02:29;;;;;;;7.93;5.00;;;12.30;99.90;;;;;;5068446;28;20471;-82
2022/09/26 03:05:03;;;;;;;6.50;5.00;;;12.30;99.90;;;;;;5067012;28;20436;-83
2022/09/26 03:07:33;;;;;;;6.80;5.10;;;12.30;99.90;;;;;;5055249;28;20443;-83
2022/09/26 03:10:03;;;;;;;8.57;6.20;;;12.30;99.90;;;;;;5072265;28;20448;-82
2022/09/26 03:12:32;;;;;;;7.47;5.67;;;12.40;99.90;;;;;;5069323;28;20488;-82
2022/09/26 03:15:02;;;;;;;5.53;4.50;;;12.40;99.90;;;;;;5072043;28;20515;-84
2022/09/26 03:17:30;;;;;;;7.80;5.37;;;12.50;99.90;;;;;;5070589;28;20518;-85
2022/09/26 03:20:05;;;;;;;7.27;5.30;;;12.40;99.90;;;;;;5050884;28;20455;-85
2022/09/26 03:22:32;;;;;;;7.10;4.97;;;12.50;99.90;;;;;;5054080;28;20464;-84
2022/09/26 03:25:00;;;;;;;6.20;4.47;;;12.50;99.90;;;;;;5052617;28;20456;-84
2022/09/26 03:27:27;;;;;;;6.40;4.87;;;12.60;99.90;;;;;;5045666;28;20487;-83
2022/09/26 03:29:54;;;;;;;6.20;4.37;;;12.60;99.90;;;;;;5071806;28;20517;-82
2022/09/26 03:32:21;;;;;;;11.43;5.10;;;12.40;99.90;;;;;;5059954;28;20455;-83
2022/09/26 03:34:49;;;;;;;10.13;4.80;;;12.30;99.90;;;;;;5066831;28;20446;-82
2022/09/26 03:37:17;;;;;;;8.27;4.70;;;12.40;99.90;;;;;;5066104;28;20480;-84
2022/09/26 03:39:43;;;;;;;8.37;4.43;;;12.40;99.90;;;;;;5043501;28;20452;-83
2022/09/26 03:42:10;;;;;;;9.10;5.13;;;12.40;99.90;;;;;;5054620;28;20530;-84
2022/09/26 03:44:37;;;;;;;8.67;4.60;;;12.40;99.90;;;;;;5049204;28;20486;-84
2022/09/26 03:47:04;;;;;;;7.13;5.10;;;12.40;99.90;;;;;;5053278;28;20526;-83
2022/09/26 03:49:31;;;;;;;8.10;5.17;;;12.30;99.90;;;;;;5061830;28;20488;-86
2022/09/26 03:51:58;;;;;;;8.33;4.30;;;12.30;99.90;;;;;;5060217;28;20556;-83
2022/09/26 03:54:26;;;;;;;8.63;5.33;;;12.40;99.90;;;;;;5056510;28;20476;-82
2022/09/26 03:56:54;;;;;;;7.57;5.50;;;12.40;99.90;;;;;;5050644;28;20616;-83
2022/09/26 03:59:21;;;;;;;8.73;4.83;;;12.30;99.90;;;;;;5067607;28;20462;-84
2022/09/26 04:01:49;;;;;;;7.70;5.70;;;12.40;99.90;;;;;;5057776;28;20514;-82
2022/09/26 04:04:15;;;;;;;8.57;5.87;;;12.40;99.90;;;;;;5062944;28;20481;-81
2022/09/26 04:06:43;;;;;;;12.00;6.50;;;12.30;99.90;;;;;;5059639;28;20476;-82
2022/09/26 04:09:10;;;;;;;7.70;6.13;;;12.20;99.90;;;;;;5051168;28;20484;-83
2022/09/26 04:11:39;;;;;;;9.93;7.30;;;12.30;99.90;;;;;;5061462;28;20462;-83
2022/09/26 04:14:05;;;;;;;9.10;6.20;;;12.30;99.90;;;;;;5053508;28;20538;-84
2022/09/26 04:16:32;;;;;;;10.70;6.37;;;12.20;99.90;;;;;;5048345;28;20513;-83
2022/09/26 04:18:59;;;;;;;6.87;6.17;;;12.20;99.90;;;;;;5053591;28;20537;-85
2022/09/26 04:21:26;;;;;;;11.87;6.20;;;12.30;99.90;;;;;;5040857;28;20842;-84
2022/09/26 04:23:54;;;;;;;7.77;6.80;;;12.30;99.90;;;;;;5051741;28;20551;-84
2022/09/26 04:26:22;;;;;;;10.77;6.00;;;12.30;99.90;;;;;;5046629;28;20458;-83
2022/09/26 04:28:53;;;;;;;9.37;5.20;;;12.40;99.90;;;;;;5045652;28;20544;-84
2022/09/26 04:31:21;;;;;;;13.10;7.37;;;12.30;99.90;;;;;;5064536;28;20447;-86
2022/09/26 04:33:48;;;;;;;8.80;5.60;;;12.30;99.90;;;;;;5058315;28;20483;-85
2022/09/26 04:36:16;;;;;;;7.40;5.97;;;12.30;99.90;;;;;;5047296;28;20486;-84
2022/09/26 04:38:43;;;;;;;9.27;7.13;;;12.30;99.90;;;;;;5048279;28;20465;-82
2022/09/26 04:41:11;;;;;;;10.57;5.90;;;12.30;99.90;;;;;;5042720;28;20454;-84
2022/09/26 04:43:38;;;;;;;9.37;5.77;;;12.30;99.90;;;;;;5048241;28;20478;-83
2022/09/26 04:46:09;;;;;;;7.80;5.30;;;12.30;99.90;;;;;;5062098;28;20495;-83
2022/09/26 04:48:36;;;;;;;10.53;6.40;;;12.30;99.90;;;;;;5059876;28;20956;-84
2022/09/26 04:51:06;;;;;;;8.23;6.90;;;12.20;99.90;;;;;;5046421;28;20466;-83
2022/09/26 04:53:33;;;;;;;7.90;6.37;;;12.20;99.90;;;;;;5042761;28;20996;-85
2022/09/26 04:55:59;;;;;;;11.60;6.80;;;12.00;99.90;;;;;;5045581;28;20489;-84
2022/09/26 04:58:27;;;;;;;9.10;6.73;;;12.20;99.90;;;;;;5050778;28;20721;-83
2022/09/26 05:00:53;;;;;;;7.60;5.10;;;12.10;99.90;;;;;;5043838;28;20590;-83
2022/09/26 05:03:22;;;;;;;9.90;6.03;;;12.30;99.90;;;;;;5037994;28;21028;-86
2022/09/26 05:05:49;;;;;;;8.67;5.87;;;12.20;99.90;;;;;;5050366;28;20516;-86
2022/09/26 05:08:16;;;;;;;6.83;6.00;;;12.20;99.90;;;;;;5050580;28;20447;-86
2022/09/26 05:10:45;;;;;;;8.87;6.70;;;12.20;99.90;;;;;;5049309;28;20969;-86
2022/09/26 05:13:12;;;;;;;9.30;6.30;;;12.10;99.90;;;;;;5039912;28;20491;-85
2022/09/26 05:15:40;;;;;;;7.03;6.30;;;12.10;99.90;;;;;;5047662;28;20491;-86
2022/09/26 05:18:10;;;;;;;7.17;5.73;;;12.10;99.90;;;;;;5055268;28;20467;-86
2022/09/26 05:20:38;;;;;;;10.27;6.23;;;12.20;99.90;;;;;;5054048;28;20852;-85
2022/09/26 05:23:07;;;;;;;6.60;5.17;;;12.20;99.90;;;;;;5052449;28;20588;-84
2022/09/26 05:28:22;;;;;;;10.33;5.10;;;12.20;99.90;;;;;;5037574;28;20962;-85
2022/09/26 05:30:50;;;;;;;6.67;5.13;;;12.20;99.90;;;;;;5043293;28;20453;-85
2022/09/26 05:33:17;;;;;;;8.43;5.90;;;12.20;99.90;;;;;;5039288;28;20494;-84
2022/09/26 05:35:48;;;;;;;8.93;7.30;;;12.10;99.90;;;;;;5050471;28;20483;-85
2022/09/26 05:38:15;;;;;;;10.90;6.80;;;12.10;99.90;;;;;;5041338;28;20444;-84
2022/09/26 05:40:56;;;;;;;6.80;5.13;;;12.10;99.90;;;;;;5040393;28;20485;-85
2022/09/26 05:43:23;;;;;;;8.47;5.47;;;12.20;99.90;;;;;;5036604;28;20486;-84
2022/09/26 05:45:50;;;;;;;7.70;5.90;;;12.20;99.90;;;;;;5056048;28;20454;-85
2022/09/26 05:48:17;;;;;;;7.90;4.70;;;12.10;99.90;;;;;;5051231;28;20465;-85
2022/09/26 05:50:45;;;;;;;12.77;5.97;;;12.20;99.90;;;;;;5034592;28;20456;-85
2022/09/26 05:53:12;;;;;;;6.80;5.43;;;12.20;99.90;;;;;;5035992;28;20479;-83
2022/09/26 05:55:39;;;;;;;6.50;5.53;;;12.20;99.90;;;;;;5043212;28;20850;-84
2022/09/26 05:58:06;;;;;;;9.27;5.80;;;12.10;99.90;;;;;;5036695;28;20461;-84
2022/09/26 06:00:34;;;;;;;6.60;4.93;;;12.10;99.90;;;;;;5036035;28;20550;-84
2022/09/26 06:03:02;;;;;;;7.00;5.27;;;12.20;99.90;;;;;;5037744;28;20493;-85
2022/09/26 06:05:31;;;;;;;7.93;4.50;;;12.10;99.90;;;;;;5046886;28;20452;-84
2022/09/26 06:08:01;;;;;;;8.00;5.00;;;12.10;99.90;;;;;;5045318;28;20459;-85
2022/09/26 06:10:28;;;;;;;9.97;4.83;;;12.10;99.90;;;;;;5032984;28;20460;-85
2022/09/26 06:12:55;;;;;;;8.10;4.97;;;12.10;99.90;;;;;;5037296;28;20727;-85
2022/09/26 06:15:23;;;;;;;7.40;4.83;;;12.10;99.90;;;;;;5025109;28;20548;-85
2022/09/26 06:17:57;;;;;;;6.70;4.20;;;12.10;99.90;;;;;;5031203;28;20487;-85
2022/09/26 06:20:24;;;;;;;9.30;4.57;;;12.10;99.90;;;;;;5037205;28;20474;-85
2022/09/26 06:22:51;;;;;;;5.30;4.13;;;12.20;99.90;;;;;;5029993;28;20826;-84
2022/09/26 06:25:19;;;;;;;10.27;4.30;;;12.20;99.90;;;;;;5049421;28;20461;-85
2022/09/26 06:27:47;;;;;;;8.40;4.67;;;12.30;99.90;;;;;;5033139;28;20833;-85
2022/09/26 06:30:14;;;;;;;5.90;4.23;;;12.30;99.90;;;;;;5043266;28;20461;-85
2022/09/26 06:32:41;;;;;;;7.97;4.37;;;12.40;99.90;;;;;;5043482;28;20477;-85
2022/09/26 06:35:09;;;;;;;8.63;3.50;;;12.30;99.90;;;;;;5037603;28;20821;-85
2022/09/26 06:37:36;;;;;;;9.83;4.20;;;12.40;99.90;;;;;;5035978;28;20885;-84
2022/09/26 06:40:07;;;;;;;8.10;3.27;;;12.30;99.90;;;;;;5043927;28;20453;-85
2022/09/26 06:42:36;;;;;;;6.47;3.17;;;12.40;99.90;;;;;;5037508;28;20470;-86
2022/09/26 06:45:08;;;;;;;5.20;3.43;;;12.50;99.90;;;;;;5039976;28;20452;-85
2022/09/26 06:47:35;;;;;;;8.10;3.30;;;12.50;99.90;;;;;;5037690;28;20545;-85
2022/09/26 06:50:03;;;;;;;9.70;5.30;;;12.40;99.90;;;;;;5036535;28;20454;-84
2022/09/26 06:52:33;;;;;;;5.20;3.10;;;12.60;99.90;;;;;;5042464;28;20560;-85
2022/09/26 06:55:00;;;;;;;10.53;3.60;;;12.50;99.90;;;;;;5042404;28;20474;-85
2022/09/26 06:57:27;;;;;;;8.20;4.07;;;12.60;99.90;;;;;;5037512;28;20940;-86
2022/09/26 06:59:56;;;;;;;7.17;3.57;;;12.50;99.90;;;;;;5035510;28;20563;-85
2022/09/26 07:02:24;;;;;;;6.87;3.33;;;12.60;99.90;;;;;;5018573;28;21009;-84
2022/09/26 07:04:51;;;;;;;8.33;3.40;;;12.60;99.90;;;;;;5027790;28;20461;-84
2022/09/26 07:07:19;;;;;;;3.77;3.10;;;12.60;99.90;;;;;;5057264;28;20488;-85
2022/09/26 07:09:49;;;;;;;5.20;3.30;;;12.50;99.90;;;;;;5041175;28;20457;-85
2022/09/26 07:12:15;;;;;;;6.97;2.90;;;12.60;99.90;;;;;;5040954;28;20549;-85
2022/09/26 07:14:45;;;;;;;6.43;3.60;;;12.60;99.90;;;;;;5036607;28;20454;-84
2022/09/26 07:17:21;;;;;;;7.73;3.87;;;12.60;99.90;;;;;;5033989;28;20486;-85
2022/09/26 07:19:52;;;;;;;5.50;3.50;;;12.50;99.90;;;;;;5054499;28;20532;-85
2022/09/26 07:22:19;;;;;;;5.17;3.10;;;12.50;99.90;;;;;;5046598;28;20445;-85
2022/09/26 07:24:47;;;;;;;6.83;3.57;;;12.50;99.90;;;;;;5054383;28;20449;-84
2022/09/26 07:27:15;;;;;;;5.53;2.73;;;12.50;99.90;;;;;;5052037;28;20458;-84
2022/09/26 07:29:42;;;;;;;3.90;2.87;;;12.60;99.90;;;;;;5035896;28;20465;-85
2022/09/26 07:32:09;;;;;;;4.80;3.40;;;12.70;99.90;;;;;;5038788;28;20507;-85
2022/09/26 07:34:37;;;;;;;5.47;3.30;;;12.70;99.90;;;;;;5056738;28;20460;-85
2022/09/26 07:37:04;;;;;;;5.83;3.17;;;12.70;99.90;;;;;;5053969;28;20572;-84
2022/09/26 07:39:31;;;;;;;5.50;3.10;;;12.70;99.90;;;;;;5037614;28;20460;-85
2022/09/26 07:42:02;;;;;;;4.90;3.40;;;12.60;99.90;;;;;;5041038;28;21035;-85
2022/09/26 07:44:28;;;;;;;6.73;3.30;;;12.60;99.90;;;;;;5052909;28;20451;-85
2022/09/26 07:52:27;;;;;;;4.97;3.20;;;12.70;99.90;;;;;;5045868;28;20473;-84
2022/09/26 07:54:54;;;;;;;4.73;3.47;;;12.70;99.90;;;;;;5041236;28;20485;-85
2022/09/26 07:57:21;;;;;;;5.00;3.40;;;12.70;99.90;;;;;;5058349;28;20492;-84
2022/09/26 07:59:49;;;;;;;5.37;3.17;;;12.60;99.90;;;;;;5055933;28;20481;-85
2022/09/26 08:02:21;;;;;;;5.97;2.90;;;12.70;99.90;;;;;;5046389;28;20477;-84
2022/09/26 08:04:49;;;;;;;4.07;3.30;;;12.60;99.90;;;;;;5055474;28;20459;-84
2022/09/26 08:07:16;;;;;;;6.57;2.57;;;12.60;99.90;;;;;;5052231;28;20964;-82
2022/09/26 08:09:42;;;;;;;6.47;2.83;;;12.60;99.90;;;;;;5059143;28;20460;-83
2022/09/26 08:12:09;;;;;;;6.13;2.90;;;12.60;99.90;;;;;;5043709;28;20461;-84
2022/09/26 08:14:36;;;;;;;6.13;3.07;;;12.70;99.90;;;;;;5057838;28;20434;-84
2022/09/26 08:17:03;;;;;;;4.73;2.37;;;12.60;99.90;;;;;;5039624;28;20489;-85
2022/09/26 08:19:30;;;;;;;5.60;3.70;;;12.70;99.90;;;;;;5040894;28;20536;-85
2022/09/26 08:21:58;;;;;;;5.30;2.83;;;12.70;99.90;;;;;;5045874;28;20460;-85
2022/09/26 08:24:26;;;;;;;4.77;2.63;;;12.60;99.90;;;;;;5084018;22;20500;-78
2022/09/26 08:26:54;;;;;;;6.10;3.70;;;12.70;99.90;;;;;;5075447;28;20469;-79
2022/09/26 08:29:22;;;;;;;8.10;3.10;;;12.60;99.90;;;;;;5075252;28;20471;-79
2022/09/26 08:31:50;;;;;;;9.73;3.33;;;12.60;99.90;;;;;;5058386;28;20452;-79
2022/09/26 08:34:20;;;;;;;8.10;3.13;;;12.60;99.90;;;;;;5069070;28;20481;-79
2022/09/26 08:36:51;;;;;;;4.87;3.17;;;12.60;99.90;;;;;;5055278;28;20469;-78
2022/09/26 08:39:19;;;;;;;6.50;3.50;;;12.60;99.90;;;;;;5059187;28;20460;-79
2022/09/26 08:42:07;;;;;;;5.63;2.97;;;12.60;99.90;;;;;;5073285;28;20984;-80
2022/09/26 08:46:13;;;;;;;7.13;3.10;;;12.70;99.90;;;;;;5071370;28;20929;-79
2022/09/26 08:47:57;;;;;;;5.90;3.20;;;12.60;99.90;;;;;;5065444;28;20442;-79
2022/09/26 08:50:33;;;;;;;4.73;2.90;;;12.60;99.90;;;;;;5061206;28;20544;-79
2022/09/26 08:53:04;;;;;;;7.83;3.50;;;12.50;99.90;;;;;;5059358;28;20486;-79
2022/09/26 08:55:39;;;;;;;5.17;2.90;;;12.50;99.90;;;;;;5057031;28;20897;-80
2022/09/26 08:58:15;;;;;;;5.13;3.10;;;12.40;99.90;;;;;;5066253;28;20478;-81
2022/09/26 09:00:42;;;;;;;4.50;2.87;;;12.30;99.90;;;;;;5079130;28;20435;-78
2022/09/26 09:03:22;;;;;;;6.50;3.20;;;12.40;99.90;;;;;;5064862;28;20482;-80
2022/09/26 09:05:53;;;;;;;8.07;3.23;;;12.50;99.90;;;;;;5058072;28;20781;-79
2022/09/26 09:08:25;;;;;;;7.73;3.10;;;12.30;99.90;;;;;;5065924;28;20845;-80
2022/09/26 09:11:03;;;;;;;5.60;4.00;;;12.30;99.90;;;;;;5077337;28;20447;-78
2022/09/26 09:13:45;;;;;;;5.50;3.60;;;12.30;99.90;;;;;;5075728;28;20476;-78
2022/09/26 09:16:28;;;;;;;6.60;2.80;;;12.40;99.90;;;;;;5076754;28;20451;-79
2022/09/26 09:19:03;;;;;;;7.00;3.73;;;12.30;99.90;;;;;;5074485;28;20486;-79
2022/09/26 09:21:39;;;;;;;8.03;3.63;;;12.20;99.90;;;;;;5076059;28;20451;-79
2022/09/26 09:24:18;;;;;;;5.73;3.30;;;12.30;99.90;;;;;;5067137;28;21083;-79
2022/09/26 09:26:58;;;;;;;6.53;3.37;;;12.30;99.90;;;;;;5077253;28;20542;-80
2022/09/26 09:29:46;;;;;;;9.27;3.73;;;12.30;99.90;;;;;;5058449;28;20507;-81
2022/09/26 09:32:17;;;;;;;7.37;3.67;;;12.10;99.90;;;;;;5058609;28;21109;-80
2022/09/26 09:34:48;;;;;;;9.00;3.60;;;12.10;99.90;;;;;;5056012;28;20487;-80
2022/09/26 09:37:19;;;;;;;5.00;3.67;;;12.20;99.90;;;;;;5059272;28;20485;-80
2022/09/26 09:39:48;;;;;;;5.00;3.10;;;12.20;99.90;;;;;;5077127;28;20454;-80
2022/09/26 09:42:23;;;;;;;6.37;3.00;;;12.10;99.90;;;;;;5074188;28;20458;-81
2022/09/26 09:44:55;;;;;;;4.40;3.10;;;12.10;99.90;;;;;;5077095;28;20464;-81
2022/09/26 09:47:22;;;;;;;11.30;3.67;;;12.00;99.90;;;;;;5075558;28;20556;-81
2022/09/26 09:49:49;;;;;;;6.13;3.50;;;12.00;99.90;;;;;;5057909;28;20452;-82
2022/09/26 09:52:29;;;;;;;6.83;3.13;;;12.00;99.90;;;;;;5058763;28;20460;-81
2022/09/26 09:55:09;;;;;;;5.97;2.67;;;12.00;99.90;;;;;;5076670;28;20473;-83
2022/09/26 09:57:54;;;;;;;5.87;3.10;;;11.90;99.90;;;;;;5078658;28;20486;-82
2022/09/26 10:00:23;;;;;;;3.80;2.53;;;11.90;99.90;;;;;;5081834;28;20483;-83
2022/09/26 10:02:59;;;;;;;5.70;2.83;;;12.00;99.90;;;;;;5075490;28;20453;-83
2022/09/26 10:05:37;;;;;;;4.20;2.97;;;12.00;99.90;;;;;;5058088;28;21008;-83
2022/09/26 10:08:12;;;;;;;6.40;3.60;;;11.90;99.90;;;;;;5057452;28;20531;-82
2022/09/26 10:10:43;;;;;;;4.70;2.67;;;11.90;99.90;;;;;;5056961;28;20834;-81
2022/09/26 10:13:11;;;;;;;5.23;2.80;;;12.00;99.90;;;;;;5067759;28;20478;-81
2022/09/26 10:15:43;;;;;;;8.97;3.47;;;12.00;99.90;;;;;;5074311;28;20970;-81
2022/09/26 10:18:16;;;;;;;3.13;2.40;;;12.10;99.90;;;;;;5057070;28;20479;-83
2022/09/26 10:20:51;;;;;;;5.10;2.90;;;12.10;99.90;;;;;;5057146;28;20829;-83
2022/09/26 10:23:23;;;;;;;5.00;2.50;;;12.20;99.90;;;;;;5069898;28;20517;-82
2022/09/26 10:25:52;;;;;;;4.10;2.57;;;12.30;99.90;;;;;;5061499;28;20943;-81
2022/09/26 10:28:30;;;;;;;5.80;2.60;;;12.30;99.90;;;;;;5057045;28;20506;-82
2022/09/26 10:31:03;;;;;;;4.73;2.50;;;12.50;99.90;;;;;;5057234;28;20500;-81
2022/09/26 10:33:33;;;;;;;3.50;2.20;;;12.60;99.90;;;;;;5070607;28;20477;-82
2022/09/26 10:36:09;;;;;;;5.23;2.30;;;12.60;99.90;;;;;;5073865;28;20459;-83
2022/09/26 10:41:43;;;;;;;4.40;2.40;;;12.60;99.90;;;;;;5057311;28;20443;-82
2022/09/26 10:44:28;;;;;;;3.63;2.10;;;12.60;99.90;;;;;;5055698;28;20480;-82
2022/09/26 10:46:58;;;;;;;6.97;2.80;;;12.50;99.90;;;;;;5035502;28;20464;-82
2022/09/26 10:49:36;;;;;;;3.57;1.77;;;12.50;99.90;;;;;;5061696;28;20964;-82
2022/09/26 10:52:10;;;;;;;5.47;2.40;;;12.50;99.90;;;;;;5074909;28;20428;-82
2022/09/26 10:54:42;;;;;;;6.37;2.70;;;12.50;99.90;;;;;;5069234;28;20492;-83
2022/09/26 10:57:32;;;;;;;4.27;2.20;;;12.60;99.90;;;;;;5076395;28;20447;-81
2022/09/26 11:00:05;;;;;;;5.13;2.00;;;12.50;99.90;;;;;;5059433;28;20450;-83
2022/09/26 11:02:32;;;;;;;5.20;3.17;;;12.60;99.90;;;;;;5060621;28;20453;-79
2022/09/26 11:07:48;;;;;;;4.50;2.33;;;12.70;99.90;;;;;;5059498;28;20856;-80
2022/09/26 11:10:23;;;;;;;5.10;2.30;;;12.80;99.90;;;;;;5076122;28;20457;-81
2022/09/26 11:12:57;;;;;;;5.43;2.30;;;13.00;99.90;;;;;;5073506;28;20548;-80
2022/09/26 11:15:27;;;;;;;2.67;2.07;;;13.10;99.90;;;;;;5074039;28;20458;-83
2022/09/26 11:17:55;;;;;;;6.33;2.17;;;13.20;99.90;;;;;;5080896;28;20589;-83
2022/09/26 11:20:39;;;;;;;2.90;1.83;;;13.10;99.90;;;;;;5074421;28;20446;-83
2022/09/26 11:23:16;;;;;;;4.27;1.70;;;13.30;99.90;;;;;;5066909;28;20480;-82
2022/09/26 11:25:53;;;;;;;3.50;2.40;;;13.30;99.90;;;;;;5060607;28;20455;-82
2022/09/26 11:28:25;;;;;;;3.57;2.27;;;13.50;99.90;;;;;;5061062;28;20455;-82
2022/09/26 11:30:57;;;;;;;2.40;1.53;;;13.50;99.90;;;;;;5060023;28;20459;-81
2022/09/26 11:33:24;;;;;;;4.63;2.20;;;13.60;99.90;;;;;;5057173;28;20557;-81
2022/09/26 11:36:02;;;;;;;2.80;2.00;;;13.70;99.90;;;;;;5061859;28;20459;-80
2022/09/26 11:38:41;;;;;;;4.40;2.10;;;13.70;99.90;;;;;;5059132;28;20476;-82
2022/09/26 11:41:39;;;;;;;6.83;2.00;;;13.70;99.90;;;;;;5053643;28;20463;-80
2022/09/26 11:44:20;;;;;;;3.53;1.60;;;13.90;99.90;;;;;;5051708;28;20467;-81
2022/09/26 11:47:00;;;;;;;4.63;2.13;;;14.00;99.90;;;;;;5057890;28;20525;-80
2022/09/26 11:49:44;;;;;;;4.97;1.70;;;14.20;99.90;;;;;;5055593;28;21007;-80
2022/09/26 11:52:34;;;;;;;6.13;1.97;;;14.00;99.90;;;;;;5056389;28;20462;-79
2022/09/26 11:55:17;;;;;;;4.27;2.10;;;14.10;99.90;;;;;;5055994;28;20848;-79
2022/09/26 11:57:53;;;;;;;3.90;1.70;;;14.10;99.90;;;;;;5053633;28;20491;-80
2022/09/26 12:00:26;;;;;;;3.90;1.60;;;14.20;99.90;;;;;;5056157;28;20463;-81
2022/09/26 12:03:42;;;;;;;5.13;1.80;;;14.20;99.90;;;;;;5052838;28;20451;-79
2022/09/26 12:06:23;;;;;;;5.70;1.83;;;14.20;99.90;;;;;;5054950;28;20540;-80
2022/09/26 12:09:17;;;;;;;2.47;1.43;;;14.10;99.90;;;;;;5057605;28;20441;-80
2022/09/26 12:11:53;;;;;;;3.30;1.57;;;14.30;99.90;;;;;;5056807;28;20454;-78
2022/09/26 12:14:38;;;;;;;5.83;1.77;;;14.20;99.90;;;;;;5058488;28;20455;-81
2022/09/26 12:17:13;;;;;;;2.73;1.67;;;14.30;99.90;;;;;;5054118;28;20526;-78
2022/09/26 12:19:47;;;;;;;3.30;1.33;;;14.30;99.90;;;;;;5052658;28;20497;-80
2022/09/26 12:22:30;;;;;;;10.00;1.87;;;14.30;99.90;;;;;;5055779;28;20483;-80
2022/09/26 12:25:26;;;;;;;3.33;1.53;;;14.20;99.90;;;;;;5073388;28;20548;-80
2022/09/26 12:28:15;;;;;;;4.20;1.40;;;14.20;99.90;;;;;;5043330;28;20469;-80
2022/09/26 12:30:50;;;;;;;3.20;1.50;;;14.20;99.90;;;;;;5058885;28;20451;-80
2022/09/26 12:33:50;;;;;;;2.87;1.27;;;14.20;99.90;;;;;;5060168;28;20523;-79
2022/09/26 12:36:26;;;;;;;7.70;1.77;;;14.20;99.90;;;;;;5067358;28;20451;-82
2022/09/26 12:39:11;;;;;;;1.93;1.53;;;14.00;99.90;;;;;;5065704;28;20829;-83
2022/09/26 12:41:55;;;;;;;3.60;1.60;;;13.90;99.90;;;;;;5074387;28;20441;-83
2022/09/26 12:44:44;;;;;;;3.33;1.70;;;13.80;99.90;;;;;;5062755;28;20476;-82
2022/09/26 12:47:47;;;;;;;3.60;2.10;;;13.70;99.90;;;;;;5056297;28;20952;-85
2022/09/26 12:50:22;;;;;;;4.40;1.63;;;13.60;99.90;;;;;;5075477;28;20458;-83
2022/09/26 12:53:21;;;;;;;3.50;1.67;;;13.60;99.90;;;;;;5058272;28;20454;-83
2022/09/26 12:55:58;;;;;;;3.77;1.90;;;13.50;99.90;;;;;;5074813;28;20435;-82
2022/09/26 12:58:42;;;;;;;4.17;2.67;;;13.40;99.90;;;;;;5068786;28;20471;-83
2022/09/26 13:01:26;;;;;;;3.83;1.80;;;13.40;99.90;;;;;;5063144;28;20541;-82
2022/09/26 13:04:15;;;;;;;2.57;1.90;;;13.30;99.90;;;;;;5054095;28;20487;-82
2022/09/26 13:07:05;;;;;;;2.60;1.83;;;13.30;99.90;;;;;;5071419;28;20885;-81
2022/09/26 13:09:50;;;;;;;5.00;1.87;;;13.30;99.90;;;;;;5066157;28;20564;-84
2022/09/26 13:12:32;;;;;;;4.60;2.10;;;13.20;99.90;;;;;;5055287;28;20873;-82
2022/09/26 13:15:18;;;;;;;3.37;1.90;;;13.20;99.90;;;;;;5059398;28;20473;-83
2022/09/26 13:17:51;;;;;;;2.30;1.40;;;13.20;99.90;;;;;;5067040;28;20463;-81
2022/09/26 13:20:23;;;;;;;3.47;1.70;;;13.10;99.90;;;;;;5056347;28;20516;-82
2022/09/26 13:22:56;;;;;;;3.70;2.00;;;13.10;99.90;;;;;;5062653;28;20970;-82
2022/09/26 13:25:31;;;;;;;2.50;1.97;;;13.10;99.90;;;;;;5065224;28;20455;-81
2022/09/26 13:28:03;;;;;;;3.20;2.00;;;13.10;99.90;;;;;;5061803;28;20483;-81